createdAt,value
2022-08-05T00:01:35.886Z,48.79
2022-08-05T00:04:08.348Z,48.00
2022-08-05T00:06:36.694Z,48.46
2022-08-05T00:09:05.127Z,48.92
2022-08-05T00:11:48.720Z,47.87
2022-08-05T00:14:27.605Z,48.53
2022-08-05T00:16:57.674Z,47.57
2022-08-05T00:19:33.096Z,47.51
2022-08-05T00:22:02.854Z,48.91
2022-08-05T00:24:31.815Z,48.23
2022-08-05T00:27:00.344Z,48.23
2022-08-05T00:29:37.603Z,48.72
2022-08-05T00:32:12.499Z,47.98
2022-08-05T00:35:04.312Z,48.71
2022-08-05T00:37:50.434Z,47.32
2022-08-05T00:40:27.484Z,48.45
2022-08-05T00:42:58.068Z,48.20
2022-08-05T00:45:38.716Z,47.37
2022-08-05T00:48:09.518Z,48.21
2022-08-05T00:50:50.623Z,47.24
2022-08-05T00:54:00.738Z,47.42
2022-08-05T00:56:09.464Z,47.33
2022-08-05T00:58:44.864Z,47.92
2022-08-05T01:01:13.290Z,47.08
2022-08-05T01:03:42.476Z,47.65
2022-08-05T01:06:15.200Z,47.65
2022-08-05T01:08:44.960Z,48.80
2022-08-05T01:11:24.179Z,48.14
2022-08-05T01:14:36.299Z,46.92
2022-08-05T01:17:07.711Z,48.28
2022-08-05T01:20:01.118Z,48.60
2022-08-05T01:22:47.046Z,47.11
2022-08-05T01:25:24.882Z,49.22
2022-08-05T01:28:21.261Z,46.88
2022-08-05T01:31:18.183Z,46.76
2022-08-05T01:34:02.426Z,47.12
2022-08-05T01:36:34.252Z,46.25
2022-08-05T01:39:12.857Z,46.36
2022-08-05T01:41:44.402Z,46.70
2022-08-05T01:44:15.295Z,45.92
2022-08-05T01:46:46.274Z,46.99
2022-08-05T01:49:23.765Z,46.68
2022-08-05T01:52:03.358Z,47.35
2022-08-05T01:54:49.473Z,47.42
2022-08-05T01:58:11.651Z,47.05
2022-08-05T02:00:14.150Z,47.65
2022-08-05T02:02:53.667Z,48.33
2022-08-05T02:05:28.623Z,48.38
2022-08-05T02:08:01.360Z,47.92
2022-08-05T02:10:35.386Z,48.04
2022-08-05T02:13:17.937Z,49.25
2022-08-05T02:15:51.499Z,48.49
2022-08-05T02:18:31.380Z,47.91
2022-08-05T02:21:14.662Z,48.48
2022-08-05T02:23:46.821Z,48.85
2022-08-05T02:26:19.513Z,48.18
2022-08-05T02:28:50.301Z,48.68
2022-08-05T02:31:22.587Z,49.24
2022-08-05T02:33:57.358Z,49.38
2022-08-05T02:36:27.670Z,49.07
2022-08-05T02:39:00.867Z,48.76
2022-08-05T02:41:42.834Z,49.21
2022-08-05T02:44:18.127Z,49.32
2022-08-05T02:46:58.741Z,49.21
2022-08-05T02:49:35.688Z,49.14
2022-08-05T02:52:29.589Z,48.89
2022-08-05T02:55:01.980Z,49.91
2022-08-05T02:58:09.248Z,50.22
2022-08-05T03:00:25.364Z,50.30
2022-08-05T03:02:55.879Z,50.18
2022-08-05T03:06:55.096Z,50.20
2022-08-05T03:08:13.374Z,49.83
2022-08-05T03:11:53.792Z,49.78
2022-08-05T03:13:51.854Z,49.84
2022-08-05T03:16:27.672Z,50.33
2022-08-05T03:18:55.960Z,50.39
2022-08-05T03:21:23.524Z,50.36
2022-08-05T03:23:58.104Z,50.41
2022-08-05T03:26:31.756Z,51.73
2022-08-05T03:29:01.019Z,51.79
2022-08-05T03:31:55.435Z,51.75
2022-08-05T03:34:17.930Z,51.88
2022-08-05T03:36:45.962Z,52.42
2022-08-05T03:39:20.043Z,52.42
2022-08-05T03:41:56.354Z,52.50
2022-08-05T03:44:25.514Z,52.30
2022-08-05T03:46:57.118Z,52.83
2022-08-05T03:49:31.245Z,53.24
2022-08-05T03:52:39.254Z,52.83
2022-08-05T03:56:05.518Z,52.47
2022-08-05T03:58:01.931Z,52.71
2022-08-05T04:00:32.282Z,52.98
2022-08-05T04:03:02.912Z,53.30
2022-08-05T04:05:34.603Z,53.02
2022-08-05T04:08:29.977Z,53.97
2022-08-05T04:10:58.278Z,53.01
2022-08-05T04:13:49.414Z,53.03
2022-08-05T04:16:14.593Z,53.22
2022-08-05T04:18:45.400Z,53.51
2022-08-05T04:22:05.283Z,52.85
2022-08-05T04:24:08.784Z,52.14
2022-08-05T04:26:37.356Z,51.71
2022-08-05T04:29:07.146Z,50.35
2022-08-05T04:31:38.581Z,50.92
2022-08-05T04:34:18.303Z,50.83
2022-08-05T04:37:01.459Z,49.97
2022-08-05T04:39:32.423Z,49.51
2022-08-05T04:42:04.442Z,50.36
2022-08-05T04:44:32.787Z,50.78
2022-08-05T04:47:09.335Z,49.33
2022-08-05T04:50:02.499Z,48.35
2022-08-05T04:52:34.619Z,48.46
2022-08-05T04:55:14.665Z,47.37
2022-08-05T04:57:47.945Z,47.41
2022-08-05T05:00:23.559Z,47.04
2022-08-05T05:02:52.304Z,46.84
2022-08-05T05:05:28.444Z,45.80
2022-08-05T05:08:02.632Z,44.51
2022-08-05T05:10:33.199Z,44.78
2022-08-05T05:13:04.407Z,43.55
2022-08-05T05:15:56.841Z,41.82
2022-08-05T05:18:31.203Z,42.22
2022-08-05T05:21:05.590Z,41.50
2022-08-05T05:24:01.630Z,42.53
2022-08-05T05:26:28.416Z,41.90
2022-08-05T05:29:10.164Z,41.15
2022-08-05T05:31:42.824Z,39.89
2022-08-05T05:34:14.171Z,40.56
2022-08-05T05:36:43.840Z,40.33
2022-08-05T05:39:14.878Z,40.21
2022-08-05T05:41:54.462Z,39.65
2022-08-05T05:44:36.443Z,39.88
2022-08-05T05:47:13.194Z,38.60
2022-08-05T05:49:52.618Z,38.29
2022-08-05T05:52:30.042Z,38.71
2022-08-05T05:55:07.522Z,38.78
2022-08-05T05:57:52.601Z,38.68
2022-08-05T06:00:31.451Z,38.20
2022-08-05T06:03:03.461Z,38.45
2022-08-05T06:05:53.923Z,37.48
2022-08-05T06:08:31.814Z,37.42
2022-08-05T06:11:07.079Z,36.87
2022-08-05T06:13:50.427Z,38.49
2022-08-05T06:16:29.145Z,37.44
2022-08-05T06:19:05.870Z,36.00
2022-08-05T06:21:38.702Z,36.20
2022-08-05T06:24:12.848Z,35.85
2022-08-05T06:26:51.558Z,34.83
2022-08-05T06:29:25.018Z,34.95
2022-08-05T06:32:25.091Z,35.46
2022-08-05T06:35:00.364Z,36.26
2022-08-05T06:37:39.462Z,33.18
2022-08-05T06:40:34.409Z,33.22
2022-08-05T06:43:02.966Z,32.20
2022-08-05T06:45:44.691Z,31.96
2022-08-05T06:48:47.255Z,32.98
2022-08-05T06:51:09.957Z,30.95
2022-08-05T06:53:53.560Z,32.67
2022-08-05T06:56:26.543Z,30.50
2022-08-05T06:58:56.521Z,30.68
2022-08-05T07:01:27.623Z,30.23
2022-08-05T07:04:03.359Z,28.14
2022-08-05T07:06:37.444Z,29.03
2022-08-05T07:09:07.508Z,27.97
2022-08-05T07:11:37.203Z,28.81
2022-08-05T07:14:30.002Z,27.64
2022-08-05T07:17:58.836Z,27.33
2022-08-05T07:20:31.619Z,28.22
2022-08-05T07:22:43.919Z,27.15
2022-08-05T07:25:54.219Z,27.03
2022-08-05T07:28:09.631Z,26.75
2022-08-05T07:30:41.470Z,27.50
2022-08-05T07:33:16.837Z,27.69
2022-08-05T07:36:03.319Z,27.19
2022-08-05T07:38:43.676Z,27.07
2022-08-05T07:42:07.409Z,27.86
2022-08-05T07:44:14.336Z,28.04
2022-08-05T07:46:50.661Z,26.18
2022-08-05T07:49:21.684Z,25.84
2022-08-05T07:51:53.611Z,25.62
2022-08-05T07:54:33.589Z,25.10
2022-08-05T07:57:17.834Z,25.50
2022-08-05T07:59:55.298Z,26.16
2022-08-05T08:02:26.812Z,25.82
2022-08-05T08:05:02.237Z,25.63
2022-08-05T08:07:39.459Z,26.10
2022-08-05T08:10:21.507Z,27.01
2022-08-05T08:12:51.490Z,25.31
2022-08-05T08:16:33.366Z,26.52
2022-08-05T08:18:14.226Z,25.53
2022-08-05T08:21:02.981Z,24.90
2022-08-05T08:24:01.409Z,24.79
2022-08-05T08:26:26.987Z,24.58
2022-08-05T08:30:03.302Z,23.88
2022-08-05T08:31:55.944Z,25.12
2022-08-05T08:34:30.706Z,25.11
2022-08-05T08:37:04.597Z,23.98
2022-08-05T08:39:37.405Z,23.77
2022-08-05T08:42:32.488Z,23.46
2022-08-05T08:45:25.238Z,23.76
2022-08-05T08:48:12.581Z,24.98
2022-08-05T08:51:03.762Z,23.79
2022-08-05T08:53:40.223Z,23.87
2022-08-05T08:56:13.683Z,25.90
2022-08-05T08:58:44.388Z,23.55
2022-08-05T09:01:20.402Z,23.78
2022-08-05T09:03:57.330Z,25.41
2022-08-05T09:06:29.733Z,23.42
2022-08-05T09:09:05.481Z,24.37
2022-08-05T09:11:51.638Z,22.11
2022-08-05T09:14:58.879Z,24.25
2022-08-05T09:17:40.109Z,24.23
2022-08-05T09:20:05.986Z,22.74
2022-08-05T09:23:05.321Z,22.70
2022-08-05T09:26:02.194Z,23.12
2022-08-05T09:28:32.078Z,22.21
2022-08-05T09:31:22.439Z,21.51
2022-08-05T09:34:13.101Z,23.27
2022-08-05T09:36:55.323Z,23.54
2022-08-05T09:39:45.587Z,22.57
2022-08-05T09:42:28.469Z,23.51
2022-08-05T09:46:04.611Z,22.30
2022-08-05T09:47:57.842Z,21.34
2022-08-05T09:50:44.882Z,21.05
2022-08-05T09:56:04.902Z,20.83
2022-08-05T09:58:39.122Z,20.29
2022-08-05T10:01:31.945Z,22.25
2022-08-05T10:04:10.265Z,21.07
2022-08-05T10:09:30.575Z,20.90
2022-08-05T10:12:18.499Z,19.88
2022-08-05T10:15:20.851Z,19.84
2022-08-05T10:18:20.239Z,19.29
2022-08-05T10:21:08.349Z,20.19
2022-08-05T10:26:16.038Z,19.78
2022-08-05T10:28:47.581Z,21.38
2022-08-05T10:32:51.960Z,20.86
2022-08-05T10:34:17.674Z,19.00
2022-08-05T10:36:57.036Z,20.47
2022-08-05T10:39:59.048Z,22.08
2022-08-05T10:42:33.958Z,19.45
2022-08-05T10:45:21.611Z,19.24
2022-08-05T10:48:30.115Z,21.33
2022-08-05T10:50:58.899Z,19.36
2022-08-05T10:53:38.403Z,20.42
2022-08-05T10:56:25.477Z,19.22
2022-08-05T10:58:56.322Z,18.29
2022-08-05T11:02:04.513Z,19.45
2022-08-05T11:04:31.701Z,18.77
2022-08-05T11:07:07.024Z,17.20
2022-08-05T11:09:46.498Z,17.30
2022-08-05T11:12:41.235Z,22.69
2022-08-05T11:15:59.099Z,18.64
2022-08-05T11:18:29.944Z,18.40
2022-08-05T11:21:11.852Z,18.08
2022-08-05T11:24:04.787Z,18.08
2022-08-05T11:26:52.132Z,18.06
2022-08-05T11:29:42.093Z,19.80
2022-08-05T11:32:26.097Z,20.08
2022-08-05T11:35:07.233Z,20.25
2022-08-05T11:38:30.913Z,19.54
2022-08-05T11:41:03.679Z,18.55
2022-08-05T11:47:09.361Z,17.54
2022-08-05T11:49:56.252Z,18.39
2022-08-05T11:52:31.052Z,18.92
2022-08-05T11:55:07.647Z,17.22
2022-08-05T11:58:08.679Z,18.79
2022-08-05T12:00:32.607Z,17.44
2022-08-05T12:03:29.412Z,18.42
2022-08-05T12:06:02.219Z,16.99
2022-08-05T12:08:32.658Z,17.51
2022-08-05T12:11:05.503Z,17.31
2022-08-05T12:13:48.659Z,17.29
2022-08-05T12:16:19.458Z,17.59
2022-08-05T12:18:53.063Z,17.00
2022-08-05T12:24:17.662Z,16.96
2022-08-05T12:26:50.230Z,17.04
2022-08-05T12:29:38.729Z,18.40
2022-08-05T12:32:09.621Z,17.84
2022-08-05T12:34:39.937Z,17.78
2022-08-05T12:37:21.837Z,19.29
2022-08-05T12:39:55.461Z,17.24
2022-08-05T12:42:38.489Z,16.96
2022-08-05T12:45:18.815Z,17.65
2022-08-05T12:48:17.698Z,18.58
2022-08-05T12:51:21.854Z,19.54
2022-08-05T12:54:16.969Z,18.55
2022-08-05T12:57:18.161Z,16.97
2022-08-05T13:02:44.543Z,17.45
2022-08-05T13:05:20.653Z,19.24
2022-08-05T13:07:59.910Z,17.59
2022-08-05T13:10:50.506Z,16.92
2022-08-05T13:18:41.627Z,15.98
2022-08-05T13:21:12.448Z,16.84
2022-08-05T13:23:52.300Z,17.50
2022-08-05T13:26:29.941Z,16.03
2022-08-05T13:29:00.804Z,15.75
2022-08-05T13:32:02.933Z,15.90
2022-08-05T13:34:26.074Z,17.27
2022-08-05T13:37:05.572Z,17.19
2022-08-05T13:40:15.866Z,17.16
2022-08-05T13:42:29.927Z,15.83
2022-08-05T13:45:00.425Z,16.23
2022-08-05T13:47:35.817Z,16.66
2022-08-05T13:50:31.968Z,17.57
2022-08-05T13:53:09.085Z,17.21
2022-08-05T13:56:01.947Z,16.72
2022-08-05T13:58:38.363Z,17.33
2022-08-05T14:01:12.982Z,17.03
2022-08-05T14:03:46.910Z,17.60
2022-08-05T14:06:26.667Z,16.19
2022-08-05T14:09:02.513Z,16.86
2022-08-05T14:12:04.086Z,16.59
2022-08-05T14:14:33.784Z,18.43
2022-08-05T14:17:03.216Z,17.27
2022-08-05T14:19:54.600Z,17.67
2022-08-05T14:22:25.019Z,16.10
2022-08-05T14:25:21.532Z,16.11
2022-08-05T14:27:51.527Z,16.84
2022-08-05T14:30:21.619Z,17.85
2022-08-05T14:33:04.844Z,17.13
2022-08-05T14:35:49.911Z,16.82
2022-08-05T14:38:34.139Z,18.52
2022-08-05T14:41:17.763Z,16.54
2022-08-05T14:43:59.296Z,18.50
2022-08-05T14:46:35.328Z,16.49
2022-08-05T14:49:07.369Z,17.53
2022-08-05T14:51:37.986Z,17.04
2022-08-05T14:54:27.575Z,17.64
2022-08-05T14:56:59.828Z,16.62
2022-08-05T14:59:35.783Z,16.38
2022-08-05T15:02:14.704Z,16.70
2022-08-05T15:04:44.965Z,18.55
2022-08-05T15:08:06.286Z,18.85
2022-08-05T15:10:13.929Z,19.18
2022-08-05T15:13:01.075Z,17.91
2022-08-05T15:15:54.867Z,18.32
2022-08-05T15:18:27.545Z,18.48
2022-08-05T15:21:07.409Z,17.64
2022-08-05T15:23:56.644Z,17.28
2022-08-05T15:29:13.854Z,17.74
2022-08-05T15:31:42.165Z,17.39
2022-08-05T15:34:31.715Z,17.68
2022-08-05T15:37:06.895Z,17.36
2022-08-05T15:42:53.437Z,18.12
2022-08-05T15:45:23.088Z,17.78
2022-08-05T15:48:16.730Z,17.08
2022-08-05T15:50:47.579Z,18.07
2022-08-05T15:53:21.552Z,17.90
2022-08-05T15:56:01.424Z,18.45
2022-08-05T15:58:37.145Z,18.62
2022-08-05T16:01:16.113Z,18.98
2022-08-05T16:03:48.274Z,19.07
2022-08-05T16:06:26.518Z,18.19
2022-08-05T16:08:57.997Z,18.69
2022-08-05T16:11:43.098Z,19.56
2022-08-05T16:14:17.367Z,18.50
2022-08-05T16:16:47.492Z,18.89
2022-08-05T16:19:25.322Z,18.45
2022-08-05T16:22:05.032Z,18.50
2022-08-05T16:24:41.840Z,19.04
2022-08-05T16:27:19.281Z,19.09
2022-08-05T16:30:08.338Z,19.64
2022-08-05T16:32:56.175Z,18.23
2022-08-05T16:35:28.370Z,18.75
2022-08-05T16:38:13.677Z,20.02
2022-08-05T16:40:55.624Z,18.78
2022-08-05T16:43:35.725Z,18.67
2022-08-05T16:46:12.858Z,18.75
2022-08-05T16:48:58.979Z,18.89
2022-08-05T16:51:51.396Z,19.11
2022-08-05T16:54:30.257Z,18.50
2022-08-05T16:57:01.657Z,18.86
2022-08-05T16:59:32.083Z,18.76
2022-08-05T17:02:01.731Z,18.86
2022-08-05T17:04:36.926Z,19.69
2022-08-05T17:07:43.471Z,19.63
2022-08-05T17:10:11.738Z,19.37
2022-08-05T17:12:51.739Z,19.09
2022-08-05T17:15:21.120Z,19.02
2022-08-05T17:18:02.128Z,19.68
2022-08-05T17:20:34.747Z,19.77
2022-08-05T17:23:07.694Z,19.42
2022-08-05T17:25:40.398Z,19.43
2022-08-05T17:28:17.826Z,19.58
2022-08-05T17:30:51.920Z,20.23
2022-08-05T17:33:29.588Z,20.13
2022-08-05T17:36:33.767Z,21.83
2022-08-05T17:39:01.235Z,21.33
2022-08-05T17:42:19.920Z,21.46
2022-08-05T17:46:53.281Z,22.07
2022-08-05T17:49:23.891Z,22.39
2022-08-05T17:51:59.721Z,22.26
2022-08-05T17:54:33.886Z,22.19
2022-08-05T17:57:04.767Z,22.60
2022-08-05T17:59:42.812Z,23.97
2022-08-05T18:02:16.629Z,25.10
2022-08-05T18:04:51.423Z,25.09
2022-08-05T18:07:21.974Z,26.04
2022-08-05T18:09:59.594Z,26.29
2022-08-05T18:12:32.003Z,27.07
2022-08-05T18:15:02.802Z,26.72
2022-08-05T18:17:59.134Z,27.49
2022-08-05T18:20:29.145Z,28.05
2022-08-05T18:23:09.352Z,28.57
2022-08-05T18:25:44.923Z,28.49
2022-08-05T18:28:21.845Z,28.71
2022-08-05T18:30:57.053Z,28.90
2022-08-05T18:33:28.631Z,28.79
2022-08-05T18:36:27.902Z,28.92
2022-08-05T18:39:09.875Z,29.45
2022-08-05T18:42:10.898Z,29.32
2022-08-05T18:44:49.214Z,29.78
2022-08-05T18:47:26.705Z,29.84
2022-08-05T18:50:16.767Z,30.39
2022-08-05T18:52:50.959Z,30.46
2022-08-05T18:55:23.299Z,30.85
2022-08-05T18:58:03.007Z,31.04
2022-08-05T19:00:34.805Z,31.58
2022-08-05T19:03:11.215Z,31.85
2022-08-05T19:06:11.530Z,31.79
2022-08-05T19:08:42.877Z,32.07
2022-08-05T19:11:11.119Z,32.76
2022-08-05T19:13:42.160Z,32.69
2022-08-05T19:16:24.278Z,33.13
2022-08-05T19:19:04.156Z,33.12
2022-08-05T19:24:34.864Z,33.58
2022-08-05T19:29:47.652Z,33.92
2022-08-05T19:32:20.756Z,34.36
2022-08-05T19:35:05.948Z,34.58
2022-08-05T19:38:04.553Z,35.52
2022-08-05T19:40:32.635Z,35.34
2022-08-05T19:43:05.760Z,35.38
2022-08-05T19:45:37.616Z,35.50
2022-08-05T19:51:03.950Z,35.63
2022-08-05T19:54:05.212Z,35.99
2022-08-05T19:56:38.722Z,36.15
2022-08-05T20:01:45.546Z,36.62
2022-08-05T20:07:13.009Z,36.32
2022-08-05T20:09:53.607Z,36.28
2022-08-05T20:12:30.581Z,36.69
2022-08-05T20:15:02.764Z,36.81
2022-08-05T20:17:35.624Z,37.85
2022-08-05T20:20:11.062Z,37.69
2022-08-05T20:25:23.188Z,38.16
2022-08-05T20:27:53.478Z,38.33
2022-08-05T20:30:32.797Z,38.55
2022-08-05T20:33:07.375Z,39.10
2022-08-05T20:35:45.479Z,39.12
2022-08-05T20:38:26.841Z,39.21
2022-08-05T20:40:56.724Z,38.84
2022-08-05T20:43:57.659Z,39.17
2022-08-05T20:46:25.158Z,37.34
2022-08-05T20:48:55.144Z,36.67
2022-08-05T20:51:31.939Z,37.60
2022-08-05T20:56:42.490Z,38.76
2022-08-05T20:59:26.708Z,37.75
2022-08-05T21:02:04.337Z,37.62
2022-08-05T21:04:35.768Z,38.49
2022-08-05T21:07:06.052Z,37.51
2022-08-05T21:09:50.235Z,39.15
2022-08-05T21:12:21.772Z,39.37
2022-08-05T21:14:55.387Z,39.24
2022-08-05T21:17:27.270Z,40.12
2022-08-05T21:19:59.007Z,39.47
2022-08-05T21:22:31.157Z,39.80
2022-08-05T21:25:01.626Z,39.76
2022-08-05T21:27:38.510Z,40.48
2022-08-05T21:30:08.261Z,40.24
2022-08-05T21:32:38.428Z,40.38
2022-08-05T21:35:18.363Z,40.75
2022-08-05T21:37:56.940Z,41.39
2022-08-05T21:40:26.226Z,40.99
2022-08-05T21:42:59.019Z,41.13
2022-08-05T21:45:56.805Z,41.03
2022-08-05T21:48:23.930Z,41.21
2022-08-05T21:50:54.492Z,41.68
2022-08-05T21:53:27.356Z,41.91
2022-08-05T21:56:05.882Z,42.02
2022-08-05T21:58:57.065Z,42.42
2022-08-05T22:01:26.689Z,41.63
2022-08-05T22:03:54.775Z,42.37
2022-08-05T22:06:35.068Z,42.15
2022-08-05T22:09:13.721Z,41.86
2022-08-05T22:11:47.360Z,42.07
2022-08-05T22:14:35.857Z,41.80
2022-08-05T22:17:07.460Z,42.33
2022-08-05T22:20:02.747Z,42.36
2022-08-05T22:22:26.979Z,42.89
2022-08-05T22:25:27.396Z,42.76
2022-08-05T22:28:08.359Z,42.93
2022-08-05T22:30:55.426Z,42.94
2022-08-05T22:33:56.788Z,43.09
2022-08-05T22:36:15.700Z,43.13
2022-08-05T22:38:48.588Z,43.95
2022-08-05T22:42:04.713Z,44.40
2022-08-05T22:44:08.366Z,44.18
2022-08-05T22:46:39.451Z,44.03
2022-08-05T22:49:23.359Z,44.34
2022-08-05T22:52:05.945Z,44.69
2022-08-05T22:54:36.417Z,44.27
2022-08-05T22:57:05.873Z,44.53
2022-08-05T22:59:44.251Z,44.67
2022-08-05T23:02:18.213Z,44.96
2022-08-05T23:04:52.147Z,44.50
2022-08-05T23:07:22.073Z,45.43
2022-08-05T23:09:58.376Z,45.25
2022-08-05T23:12:32.644Z,45.35
2022-08-05T23:15:03.543Z,45.17
2022-08-05T23:17:37.410Z,45.47
2022-08-05T23:20:20.898Z,45.29
2022-08-05T23:22:55.619Z,45.87
2022-08-05T23:25:52.395Z,45.58
2022-08-05T23:28:15.891Z,45.64
2022-08-05T23:30:53.349Z,45.91
2022-08-05T23:33:26.346Z,45.75
2022-08-05T23:36:13.863Z,46.11
2022-08-05T23:38:43.821Z,45.80
2022-08-05T23:41:12.019Z,45.74
2022-08-05T23:44:06.521Z,46.49
2022-08-05T23:46:29.780Z,47.18
2022-08-05T23:49:00.371Z,47.56
2022-08-05T23:51:54.946Z,47.07
2022-08-05T23:54:25.485Z,46.89
2022-08-05T23:57:03.806Z,47.00
